LiveATC.Net - Listen to live air traffic control over the Internet!


ICAO: LHOY  IATA:   Airport: Ocseny Airport
City: Ocseny
Country: Hungary   Continent: Europe
LHPP METAR Weather: LHPP 110745Z AUTO 07007KT 020V100 CAVOK 23/10 Q1020
LHOY Flight Activity (FlightAware)

LHOY CTAF
Feed Status: DOWN
Last heard on: 2022-01-07 14:33:22 (215 days 18 hours 17 minutes ago)
Archive Access: LHOY CTAF
FacilityFrequency
Ocseny CTAF122.830

NOTICE

Unauthorized use prohibited. See LiveATC.net Terms of Service


Airport/ARTCC Code
Frequency Search
(e.g., 124.400, 128.75)
Site-wide search
 


Browse Feeds
Top 50 Feeds
HF Oceanic Feeds
Coverage Map
Bad Weather Areas

LiveATC FAQ
Offer LiveATC feed
Contact LiveATC.net
Press Inquiries

LiveATC on iPhone
LiveATC on Android

LiveATC Mobile
(Mobile browser)

ATC Audio Archives
Interesting Recordings

LiveATC Forums


Home Page
About LiveATC.net


Terms of Use
Privacy Policy

AIRMETs/SIGMETs

FAA Airport Status
NAS Status
Arrival Demand


Server Software By:
Icecast.org
Liquidsoap